Time;durP1;ratioP1;P1;durP2;ratioP2;P2;SDS_P1;SDS_P2;PMS_P1;PMS_P2;Temp;Humidity;BMP_temperature;BMP_pressure;BME280_temperature;BME280_humidity;BME280_pressure;Samples;Min_cycle;Max_cycle;Signal;HPM_P1;HPM_P2
2023/07/28 00:00:13;;;;;;;112.10;48.75;;;17.40;99.90;;;;;;5023776;28;20493;-76
2023/07/28 00:02:39;;;;;;;110.97;47.65;;;17.40;99.90;;;;;;5030335;28;20041;-75
2023/07/28 00:05:05;;;;;;;208.77;56.28;;;17.40;99.90;;;;;;5032567;28;20151;-76
2023/07/28 00:07:33;;;;;;;199.20;54.17;;;17.40;99.90;;;;;;5037330;28;20120;-75
2023/07/28 00:09:59;;;;;;;109.30;48.78;;;17.40;99.90;;;;;;5037858;28;20037;-75
2023/07/28 00:12:25;;;;;;;203.88;52.72;;;17.40;99.90;;;;;;5028035;28;20048;-75
2023/07/28 00:14:50;;;;;;;224.02;56.85;;;17.40;99.90;;;;;;5035065;28;20083;-75
2023/07/28 00:17:16;;;;;;;113.15;48.15;;;17.50;99.90;;;;;;5032842;28;20049;-75
2023/07/28 00:19:41;;;;;;;192.63;54.65;;;17.40;99.90;;;;;;5016383;28;20445;-75
2023/07/28 00:22:07;;;;;;;172.13;52.72;;;17.50;99.90;;;;;;5032860;28;20044;-75
2023/07/28 00:24:32;;;;;;;250.43;57.47;;;17.40;99.90;;;;;;5039601;28;20029;-76
2023/07/28 00:26:58;;;;;;;219.55;58.22;;;17.50;99.90;;;;;;5019256;28;20037;-75
2023/07/28 00:29:24;;;;;;;203.93;56.92;;;17.40;99.90;;;;;;5028539;28;20283;-75
2023/07/28 00:31:49;;;;;;;211.00;57.22;;;17.40;99.90;;;;;;5017340;28;20037;-75
2023/07/28 00:34:15;;;;;;;144.38;50.33;;;17.40;99.90;;;;;;5026402;28;20049;-75
2023/07/28 00:36:40;;;;;;;118.35;47.55;;;17.40;99.90;;;;;;5035734;28;20037;-75
2023/07/28 00:39:06;;;;;;;124.63;50.05;;;17.40;99.90;;;;;;5017837;28;20038;-76
2023/07/28 00:41:32;;;;;;;209.57;55.58;;;17.40;99.90;;;;;;5031758;28;20065;-75
2023/07/28 00:43:57;;;;;;;95.38;45.00;;;17.40;99.90;;;;;;5035294;28;20067;-75
2023/07/28 00:46:23;;;;;;;127.57;50.15;;;17.40;99.90;;;;;;5031689;28;20071;-75
2023/07/28 00:48:49;;;;;;;157.88;50.00;;;17.30;99.90;;;;;;5016243;28;20048;-75
2023/07/28 00:51:15;;;;;;;254.07;55.50;;;17.40;99.90;;;;;;5028676;28;20460;-75
2023/07/28 00:53:41;;;;;;;139.40;48.83;;;17.40;99.90;;;;;;5034799;28;20029;-75
2023/07/28 00:56:07;;;;;;;209.20;54.58;;;17.40;99.90;;;;;;5034684;28;20063;-76
2023/07/28 00:58:33;;;;;;;227.10;56.08;;;17.40;99.90;;;;;;5035534;28;20036;-76
2023/07/28 01:00:59;;;;;;;212.10;56.05;;;17.40;99.90;;;;;;5024035;28;20530;-75
2023/07/28 01:03:25;;;;;;;196.00;54.95;;;17.40;99.90;;;;;;5015646;28;20056;-75
2023/07/28 01:06:15;;;;;;;222.02;56.20;;;17.40;99.90;;;;;;5011012;28;20033;-75
2023/07/28 01:08:47;;;;;;;257.38;56.47;;;17.40;99.90;;;;;;4999395;28;20048;-75
2023/07/28 01:11:14;;;;;;;229.13;55.40;;;17.40;99.90;;;;;;5009563;28;20068;-75
2023/07/28 01:13:39;;;;;;;170.95;52.58;;;17.40;99.90;;;;;;5032047;28;20033;-75
2023/07/28 01:16:06;;;;;;;194.15;54.30;;;17.40;99.90;;;;;;5032540;28;20512;-75
2023/07/28 01:18:32;;;;;;;270.00;59.35;;;17.40;99.90;;;;;;5028715;28;20052;-75
2023/07/28 01:21:02;;;;;;;262.02;57.72;;;17.40;99.90;;;;;;5033250;28;20396;-75
2023/07/28 01:23:44;;;;;;;285.27;60.53;;;17.40;99.90;;;;;;5030799;28;20726;-75
2023/07/28 01:26:11;;;;;;;142.48;51.28;;;17.40;99.90;;;;;;5034142;28;20037;-75
2023/07/28 01:28:38;;;;;;;277.77;59.05;;;17.30;99.90;;;;;;5021084;28;20108;-75
2023/07/28 01:31:06;;;;;;;190.85;54.92;;;17.40;99.90;;;;;;5019754;28;20040;-75
2023/07/28 01:33:32;;;;;;;95.68;46.30;;;17.40;99.90;;;;;;5024998;28;20041;-75
2023/07/28 01:36:00;;;;;;;217.75;53.50;;;17.40;99.90;;;;;;5026337;28;20091;-75
2023/07/28 01:38:27;;;;;;;125.32;48.10;;;17.50;99.90;;;;;;5033026;28;20627;-75
2023/07/28 01:40:52;;;;;;;275.38;57.22;;;17.40;99.90;;;;;;5032631;28;20493;-75
2023/07/28 01:43:18;;;;;;;159.02;51.17;;;17.30;99.90;;;;;;5032523;28;20059;-74
2023/07/28 01:45:44;;;;;;;169.65;51.38;;;17.40;99.90;;;;;;5034276;28;20558;-75
2023/07/28 01:48:10;;;;;;;233.55;53.17;;;17.30;99.90;;;;;;5023495;28;20044;-75
2023/07/28 01:50:36;;;;;;;104.18;46.30;;;17.30;99.90;;;;;;5033203;28;20044;-75
2023/07/28 01:53:02;;;;;;;199.50;52.22;;;17.30;99.90;;;;;;5035243;28;20042;-75
2023/07/28 01:55:27;;;;;;;280.77;58.78;;;17.30;99.90;;;;;;5033686;28;20399;-74
2023/07/28 01:57:58;;;;;;;201.35;52.72;;;17.40;99.90;;;;;;5018069;28;20459;-75
2023/07/28 02:00:24;;;;;;;191.55;53.38;;;17.40;99.90;;;;;;5015179;28;20049;-75
2023/07/28 02:02:51;;;;;;;261.25;57.13;;;17.40;99.90;;;;;;5019660;28;20033;-76
2023/07/28 02:05:17;;;;;;;201.75;52.13;;;17.40;99.90;;;;;;5024004;28;20064;-75
2023/07/28 02:07:43;;;;;;;175.63;50.33;;;17.40;99.90;;;;;;5034441;28;20067;-75
2023/07/28 02:10:10;;;;;;;197.65;51.38;;;17.40;99.90;;;;;;5034423;28;20048;-75
2023/07/28 02:12:36;;;;;;;180.73;51.40;;;17.40;99.90;;;;;;5017765;28;20041;-75
2023/07/28 02:15:02;;;;;;;157.52;50.08;;;17.40;99.90;;;;;;5033119;28;20043;-75
2023/07/28 02:17:27;;;;;;;193.57;51.88;;;17.40;99.90;;;;;;5021197;28;20034;-75
2023/07/28 02:19:53;;;;;;;230.80;53.15;;;17.40;99.90;;;;;;5026544;28;20032;-75
2023/07/28 02:22:18;;;;;;;215.23;51.13;;;17.40;99.90;;;;;;5033466;28;20041;-75
2023/07/28 02:24:44;;;;;;;150.75;46.70;;;17.40;99.90;;;;;;5016174;28;20428;-75
2023/07/28 02:27:10;;;;;;;160.80;48.72;;;17.40;99.90;;;;;;5023514;28;20034;-75
2023/07/28 02:29:35;;;;;;;172.95;49.08;;;17.40;99.90;;;;;;5014175;28;20037;-75
2023/07/28 02:32:01;;;;;;;196.02;51.08;;;17.40;99.90;;;;;;5024076;28;20093;-75
2023/07/28 02:34:26;;;;;;;84.80;41.58;;;17.30;99.90;;;;;;5005280;28;20044;-75
2023/07/28 02:36:52;;;;;;;163.18;49.28;;;17.40;99.90;;;;;;5037097;28;20063;-75
2023/07/28 02:39:17;;;;;;;132.77;45.38;;;17.40;99.90;;;;;;5025357;28;20116;-75
2023/07/28 02:41:44;;;;;;;134.02;44.75;;;17.40;99.90;;;;;;5030905;28;20033;-75
2023/07/28 02:44:09;;;;;;;127.15;44.95;;;17.30;99.90;;;;;;5020350;28;20378;-75
2023/07/28 02:46:36;;;;;;;160.75;47.60;;;17.30;99.90;;;;;;5015275;28;20086;-75
2023/07/28 02:49:03;;;;;;;83.93;41.60;;;17.30;99.90;;;;;;5024406;28;20075;-75
2023/07/28 02:51:30;;;;;;;124.78;44.67;;;17.30;99.90;;;;;;5022620;28;20037;-75
2023/07/28 02:53:55;;;;;;;181.18;49.40;;;17.40;99.90;;;;;;5032469;28;20167;-75
2023/07/28 02:56:21;;;;;;;160.20;46.67;;;17.30;99.90;;;;;;5029770;28;20124;-75
2023/07/28 02:58:48;;;;;;;140.20;46.65;;;17.30;99.90;;;;;;5014145;28;20037;-75
2023/07/28 03:01:14;;;;;;;148.70;45.95;;;17.30;99.90;;;;;;5018882;28;20044;-76
2023/07/28 03:03:39;;;;;;;162.52;46.47;;;17.30;99.90;;;;;;5032785;28;20405;-75
2023/07/28 03:06:05;;;;;;;113.18;41.30;;;17.30;99.90;;;;;;5031952;28;20044;-75
2023/07/28 03:08:30;;;;;;;98.93;41.28;;;17.30;99.90;;;;;;5013835;28;20043;-75
2023/07/28 03:11:02;;;;;;;146.05;45.90;;;17.30;99.90;;;;;;5014983;28;20044;-74
2023/07/28 03:13:28;;;;;;;145.23;44.80;;;17.40;99.90;;;;;;5025584;28;20041;-75
2023/07/28 03:15:54;;;;;;;130.23;44.47;;;17.30;99.90;;;;;;5032653;28;20037;-75
2023/07/28 03:18:19;;;;;;;187.88;47.70;;;17.40;99.90;;;;;;4997425;28;20042;-75
2023/07/28 03:20:46;;;;;;;103.78;41.88;;;17.40;99.90;;;;;;5013937;28;20559;-75
2023/07/28 03:23:12;;;;;;;162.15;46.95;;;17.40;99.90;;;;;;5033143;28;20497;-75
2023/07/28 03:25:37;;;;;;;94.15;40.80;;;17.40;99.90;;;;;;5018553;28;20044;-75
2023/07/28 03:28:03;;;;;;;99.43;41.35;;;17.40;99.90;;;;;;5030805;28;20037;-75
2023/07/28 03:30:28;;;;;;;181.35;46.10;;;17.40;99.90;;;;;;5032000;28;20033;-75
2023/07/28 03:32:54;;;;;;;217.18;48.90;;;17.40;99.90;;;;;;5032052;28;20492;-75
2023/07/28 03:35:20;;;;;;;165.77;45.67;;;17.40;99.90;;;;;;5030684;28;20455;-75
2023/07/28 03:37:45;;;;;;;168.45;45.85;;;17.40;99.90;;;;;;5017281;28;20053;-75
2023/07/28 03:40:11;;;;;;;120.35;43.75;;;17.40;99.90;;;;;;5053983;23;20040;-84
2023/07/28 03:42:37;;;;;;;175.93;47.15;;;17.40;99.90;;;;;;4995914;28;20494;-84
2023/07/28 03:45:03;;;;;;;137.27;44.60;;;17.40;99.90;;;;;;4975944;28;20085;-84
2023/07/28 03:47:29;;;;;;;133.25;46.15;;;17.40;99.90;;;;;;4974739;28;20101;-84
2023/07/28 03:49:54;;;;;;;187.90;48.83;;;17.40;99.90;;;;;;4981820;28;20391;-83
2023/07/28 03:52:20;;;;;;;188.77;47.90;;;17.40;99.90;;;;;;4997444;28;20037;-84
2023/07/28 03:54:45;;;;;;;192.15;49.55;;;17.40;99.90;;;;;;4980810;28;20099;-84
2023/07/28 03:57:11;;;;;;;237.82;52.83;;;17.50;99.90;;;;;;4989085;28;20042;-84
2023/07/28 03:59:37;;;;;;;103.00;40.90;;;17.40;99.90;;;;;;4999073;28;20034;-84
2023/07/28 04:02:03;;;;;;;196.85;49.50;;;17.40;99.90;;;;;;4999183;28;20609;-84
2023/07/28 04:04:28;;;;;;;179.60;46.70;;;17.40;99.90;;;;;;4986993;28;20045;-84
2023/07/28 04:06:54;;;;;;;111.75;42.30;;;17.40;99.90;;;;;;5004880;28;20048;-84
2023/07/28 04:09:20;;;;;;;112.00;43.65;;;17.50;99.90;;;;;;5005401;28;20034;-85
2023/07/28 04:11:45;;;;;;;104.70;42.95;;;17.40;99.90;;;;;;4993450;28;20413;-85
2023/07/28 04:14:11;;;;;;;122.43;45.72;;;17.50;99.90;;;;;;4980209;28;20084;-87
2023/07/28 04:16:37;;;;;;;157.50;47.30;;;17.50;99.90;;;;;;4994573;28;20041;-82
2023/07/28 04:19:03;;;;;;;199.65;49.65;;;17.50;99.90;;;;;;4998050;28;20041;-82
2023/07/28 04:21:29;;;;;;;200.27;52.67;;;17.50;99.90;;;;;;4995165;28;20045;-82
2023/07/28 04:23:54;;;;;;;155.63;49.05;;;17.50;99.90;;;;;;4985720;28;20144;-82
2023/07/28 04:26:20;;;;;;;261.50;54.08;;;17.50;99.90;;;;;;5000273;28;20440;-82
2023/07/28 04:28:46;;;;;;;169.27;49.60;;;17.50;99.90;;;;;;5000592;28;20064;-82
2023/07/28 04:31:13;;;;;;;203.45;50.13;;;17.50;99.90;;;;;;4987521;28;20116;-82
2023/07/28 04:33:41;;;;;;;171.27;49.05;;;17.50;99.90;;;;;;4986448;28;20558;-82
2023/07/28 04:36:07;;;;;;;117.28;46.53;;;17.50;99.90;;;;;;5016147;28;20137;-82
2023/07/28 04:38:32;;;;;;;211.55;51.78;;;17.50;99.90;;;;;;5016738;28;20513;-83
2023/07/28 04:40:58;;;;;;;282.63;54.17;;;17.50;99.90;;;;;;4991110;28;20026;-82
2023/07/28 04:43:24;;;;;;;232.82;53.08;;;17.50;99.90;;;;;;4980607;28;20124;-82
2023/07/28 04:45:49;;;;;;;162.95;49.00;;;17.50;99.90;;;;;;4999141;28;20042;-82
2023/07/28 04:48:15;;;;;;;175.93;50.30;;;17.50;99.90;;;;;;5016324;28;20044;-82
2023/07/28 04:50:40;;;;;;;121.68;46.45;;;17.50;99.90;;;;;;4992772;28;20053;-82
2023/07/28 04:53:06;;;;;;;150.52;49.97;;;17.50;99.90;;;;;;4995908;28;20038;-82
2023/07/28 04:55:35;;;;;;;105.47;44.20;;;17.60;99.90;;;;;;5009876;28;20045;-81
2023/07/28 04:58:00;;;;;;;155.43;49.72;;;17.60;99.90;;;;;;5015051;28;20044;-81
2023/07/28 05:00:26;;;;;;;138.82;48.63;;;17.60;99.90;;;;;;4996167;28;20109;-82
2023/07/28 05:02:51;;;;;;;105.93;46.10;;;17.60;99.90;;;;;;4978514;28;20033;-82
2023/07/28 05:05:17;;;;;;;133.55;47.13;;;17.60;99.90;;;;;;5002687;28;20529;-82
2023/07/28 05:07:43;;;;;;;86.22;42.45;;;17.60;99.90;;;;;;4979996;28;20041;-81
2023/07/28 05:10:09;;;;;;;152.38;48.85;;;17.60;99.90;;;;;;4979575;28;20061;-82
2023/07/28 05:12:34;;;;;;;91.30;44.00;;;17.70;99.90;;;;;;4995283;28;20038;-82
2023/07/28 05:15:00;;;;;;;161.98;47.90;;;17.70;99.90;;;;;;4986721;28;20044;-82
2023/07/28 05:17:25;;;;;;;162.02;50.17;;;17.70;99.90;;;;;;4999452;28;20049;-81
2023/07/28 05:19:51;;;;;;;88.63;42.10;;;17.70;99.90;;;;;;4984050;28;20068;-82
2023/07/28 05:22:17;;;;;;;113.57;45.95;;;17.70;99.90;;;;;;4993047;28;20088;-81
2023/07/28 05:24:44;;;;;;;83.90;42.25;;;17.80;99.90;;;;;;4993552;28;20049;-82
2023/07/28 05:27:10;;;;;;;97.78;45.65;;;17.80;99.90;;;;;;5003754;28;20048;-81
2023/07/28 05:29:36;;;;;;;125.15;47.28;;;17.80;99.90;;;;;;4979690;28;20091;-82
2023/07/28 05:32:02;;;;;;;114.35;45.78;;;17.80;99.90;;;;;;4995609;28;20451;-82
2023/07/28 05:34:28;;;;;;;75.93;38.70;;;17.80;99.90;;;;;;4988506;28;20041;-82
2023/07/28 05:36:53;;;;;;;99.20;43.88;;;17.80;99.90;;;;;;4990110;28;20045;-82
2023/07/28 05:39:19;;;;;;;77.25;41.72;;;17.90;99.90;;;;;;4995602;28;20386;-82
2023/07/28 05:41:45;;;;;;;107.72;42.63;;;18.00;99.90;;;;;;4995395;28;20048;-82
2023/07/28 05:44:11;;;;;;;216.43;50.97;;;17.90;99.90;;;;;;4985128;28;20045;-81
2023/07/28 05:46:36;;;;;;;96.35;42.55;;;17.90;99.90;;;;;;5002358;28;20472;-81
2023/07/28 05:49:02;;;;;;;124.53;45.42;;;18.00;99.90;;;;;;4996732;28;20040;-82
2023/07/28 05:51:28;;;;;;;111.35;43.92;;;17.90;99.90;;;;;;5012675;28;20048;-81
2023/07/28 05:53:54;;;;;;;99.70;42.47;;;18.00;99.90;;;;;;4977952;28;20030;-81
2023/07/28 05:56:20;;;;;;;93.30;43.03;;;18.00;99.90;;;;;;4993336;28;20378;-81
2023/07/28 05:58:46;;;;;;;67.88;39.45;;;18.20;99.90;;;;;;4995585;28;20045;-81
2023/07/28 06:01:12;;;;;;;146.32;46.67;;;18.30;99.90;;;;;;4994927;28;20441;-81
2023/07/28 06:03:38;;;;;;;121.13;44.33;;;18.30;99.90;;;;;;4991821;28;20124;-82
2023/07/28 06:06:03;;;;;;;113.18;45.15;;;18.40;99.90;;;;;;4995776;28;20083;-81
2023/07/28 06:08:29;;;;;;;89.00;42.33;;;18.60;99.90;;;;;;5003061;28;20042;-82
2023/07/28 06:10:55;;;;;;;63.78;36.15;;;18.60;99.90;;;;;;4986078;28;20042;-82
2023/07/28 06:13:20;;;;;;;86.10;40.92;;;18.60;99.90;;;;;;4982069;28;20592;-81
2023/07/28 06:15:46;;;;;;;110.85;41.80;;;18.60;99.90;;;;;;4978840;28;20136;-82
2023/07/28 06:18:12;;;;;;;85.45;39.38;;;18.60;99.90;;;;;;4984181;28;20501;-81
2023/07/28 06:20:41;;;;;;;62.40;37.03;;;18.60;99.90;;;;;;4991886;28;20034;-81
2023/07/28 06:23:06;;;;;;;60.83;37.15;;;18.80;99.90;;;;;;4977961;28;20045;-82
2023/07/28 06:25:32;;;;;;;55.45;35.58;;;18.90;99.90;;;;;;4988937;28;20026;-81
2023/07/28 06:27:58;;;;;;;53.38;33.80;;;19.00;99.90;;;;;;5014401;28;20042;-82
2023/07/28 06:30:23;;;;;;;39.65;29.40;;;19.10;99.90;;;;;;4980970;28;20046;-81
2023/07/28 06:32:49;;;;;;;37.80;28.80;;;19.20;99.90;;;;;;5000346;28;20042;-81
2023/07/28 06:35:15;;;;;;;42.15;28.50;;;19.10;99.90;;;;;;4993737;28;20042;-81
2023/07/28 06:37:40;;;;;;;31.55;25.05;;;19.20;99.90;;;;;;4994374;28;20096;-81
2023/07/28 06:40:08;;;;;;;34.08;26.10;;;19.20;99.90;;;;;;4979117;28;20034;-81
2023/07/28 06:42:35;;;;;;;44.28;30.38;;;19.20;99.90;;;;;;5000039;28;20046;-81
2023/07/28 06:45:01;;;;;;;42.72;30.27;;;19.20;99.90;;;;;;4993970;28;20038;-81
2023/07/28 06:47:27;;;;;;;45.65;30.05;;;19.20;99.90;;;;;;4993574;28;20034;-81
2023/07/28 06:49:52;;;;;;;39.47;29.52;;;19.10;99.90;;;;;;4969859;28;20038;-84
2023/07/28 06:52:18;;;;;;;47.53;30.75;;;19.20;99.90;;;;;;4994183;28;20042;-81
2023/07/28 06:54:43;;;;;;;46.35;30.30;;;19.10;99.90;;;;;;4975842;28;20044;-81
2023/07/28 06:57:09;;;;;;;43.42;30.45;;;19.10;99.90;;;;;;4971111;28;20474;-81
2023/07/28 06:59:35;;;;;;;36.67;27.45;;;19.10;99.90;;;;;;4986459;28;20113;-82
2023/07/28 07:02:00;;;;;;;38.00;28.55;;;19.10;99.90;;;;;;4991479;28;20563;-82
2023/07/28 07:04:26;;;;;;;40.28;29.30;;;19.20;99.90;;;;;;4995976;28;20068;-83
2023/07/28 07:06:51;;;;;;;35.63;27.17;;;19.30;99.90;;;;;;4990942;28;20034;-82
2023/07/28 07:09:17;;;;;;;36.15;27.10;;;19.30;99.90;;;;;;5002360;28;20489;-81
2023/07/28 07:11:43;;;;;;;38.67;28.65;;;19.40;99.90;;;;;;4982095;28;20049;-79
2023/07/28 07:14:08;;;;;;;38.42;29.33;;;19.50;99.90;;;;;;4982227;28;20045;-82
2023/07/28 07:16:34;;;;;;;32.20;27.13;;;19.40;99.90;;;;;;4995688;28;20049;-82
2023/07/28 07:19:00;;;;;;;27.83;23.92;;;19.50;99.90;;;;;;4998238;28;20061;-83
2023/07/28 07:21:27;;;;;;;29.75;25.80;;;19.50;99.90;;;;;;4995368;28;20062;-82
2023/07/28 07:23:53;;;;;;;42.15;30.52;;;19.60;99.90;;;;;;4998179;28;20067;-82
2023/07/28 07:26:18;;;;;;;28.75;25.77;;;19.70;99.90;;;;;;4979845;28;20045;-82
2023/07/28 07:28:44;;;;;;;27.45;23.85;;;19.70;99.90;;;;;;4998263;28;20037;-82
2023/07/28 07:31:13;;;;;;;28.23;25.30;;;19.70;99.90;;;;;;4982139;28;20026;-86
2023/07/28 07:33:40;;;;;;;24.73;22.17;;;19.90;99.90;;;;;;4989686;28;20389;-86
2023/07/28 07:36:11;;;;;;;24.52;22.13;;;20.10;99.90;;;;;;4981546;28;20067;-86
2023/07/28 07:38:36;;;;;;;21.73;19.40;;;20.30;99.90;;;;;;4982038;28;20128;-86
2023/07/28 07:41:04;;;;;;;22.77;20.38;;;20.40;99.90;;;;;;4981533;28;20122;-85
2023/07/28 07:43:30;;;;;;;22.13;19.75;;;20.40;99.90;;;;;;4981793;28;20038;-86
2023/07/28 07:45:55;;;;;;;23.10;20.70;;;20.60;99.90;;;;;;5005857;28;20044;-86
2023/07/28 07:48:21;;;;;;;24.65;20.98;;;20.70;99.90;;;;;;4985867;28;20043;-86
2023/07/28 07:50:47;;;;;;;21.48;19.27;;;20.80;99.90;;;;;;5002120;28;20042;-84
2023/07/28 07:53:15;;;;;;;20.52;18.40;;;20.80;99.90;;;;;;4982265;28;20053;-86
2023/07/28 07:55:41;;;;;;;19.13;16.80;;;20.80;99.90;;;;;;4981528;28;20064;-85
2023/07/28 07:58:09;;;;;;;18.77;16.55;;;20.80;99.90;;;;;;4982907;28;20033;-85
2023/07/28 08:00:38;;;;;;;18.60;16.65;;;20.90;99.90;;;;;;5001670;28;20034;-84
2023/07/28 08:03:04;;;;;;;16.27;14.75;;;20.90;99.90;;;;;;4994702;28;20034;-85
2023/07/28 08:05:30;;;;;;;16.25;14.65;;;21.10;99.90;;;;;;4995951;28;20080;-85
2023/07/28 08:07:59;;;;;;;15.93;13.95;;;21.20;99.90;;;;;;4995900;28;20116;-88
2023/07/28 08:10:39;;;;;;;15.80;14.13;;;21.40;99.90;;;;;;4995003;28;20034;-84
2023/07/28 08:13:37;;;;;;;16.83;14.40;;;21.50;99.90;;;;;;4979230;28;20034;-84
2023/07/28 08:16:25;;;;;;;;;;;;;;;;;;;;;
2023/07/28 08:20:05;;;;;;;;;;;;;;;;;;;;;
2023/07/28 08:30:18;;;;;;;18.58;16.65;;;22.50;99.90;;;;;;878357;23;20323;-87
2023/07/28 08:36:38;;;;;;;18.45;14.10;;;22.50;99.90;;;;;;4987191;28;20140;-87
2023/07/28 08:42:31;;;;;;;17.65;15.85;;;21.90;99.90;;;;;;5014054;23;20514;-86
2023/07/28 08:45:06;;;;;;;20.88;17.15;;;21.80;99.90;;;;;;4972816;28;20405;-86
2023/07/28 08:48:05;;;;;;;16.90;15.10;;;21.80;99.90;;;;;;4976972;28;20047;-86
2023/07/28 08:50:49;;;;;;;17.83;15.93;;;21.90;99.90;;;;;;4982919;28;20073;-86
2023/07/28 08:53:15;;;;;;;19.85;16.98;;;22.20;99.90;;;;;;5011355;28;20048;-86
2023/07/28 08:56:06;;;;;;;20.00;14.90;;;22.50;99.90;;;;;;5015663;23;20189;-84
2023/07/28 08:58:35;;;;;;;17.80;15.60;;;22.40;99.90;;;;;;4976540;28;20406;-79
2023/07/28 09:23:53;;;;;;;17.02;14.45;;;24.20;99.90;;;;;;5013952;28;20057;-80
2023/07/28 09:26:25;;;;;;;16.85;14.48;;;24.20;99.90;;;;;;4937442;28;20050;-82
2023/07/28 09:29:13;;;;;;;16.58;14.05;;;23.70;99.90;;;;;;4997217;28;20123;-79
2023/07/28 09:32:32;;;;;;;23.88;15.45;;;23.40;99.90;;;;;;4999287;28;20044;-80
2023/07/28 09:35:32;;;;;;;19.52;17.42;;;23.30;99.90;;;;;;5006016;28;20493;-77
2023/07/28 09:38:17;;;;;;;;;;;23.40;99.90;;;;;;5011927;28;20041;-76
2023/07/28 09:41:49;;;;;;;18.58;16.02;;;23.60;99.90;;;;;;5003742;28;19920;-79
2023/07/28 09:44:50;;;;;;;17.83;16.02;;;23.50;99.90;;;;;;4953191;29;20127;-79
2023/07/28 09:48:02;;;;;;;16.52;14.82;;;23.30;99.90;;;;;;4928372;28;20040;-78
2023/07/28 09:51:19;;;;;;;;;;;;;;;;;;;;;
2023/07/28 09:54:29;;;;;;;17.83;15.93;;;23.00;99.90;;;;;;4904785;28;20459;-80
2023/07/28 09:57:04;;;;;;;17.42;15.60;;;23.00;99.90;;;;;;4998799;28;20460;-80
2023/07/28 09:59:40;;;;;;;17.30;14.45;;;23.30;99.90;;;;;;4990929;28;20037;-80
2023/07/28 10:02:10;;;;;;;16.00;14.50;;;23.70;99.90;;;;;;5000424;28;20459;-79
2023/07/28 10:04:36;;;;;;;17.38;15.45;;;24.10;99.90;;;;;;4999564;28;20037;-80
2023/07/28 10:07:05;;;;;;;16.65;13.85;;;24.20;99.90;;;;;;5011556;28;20033;-79
2023/07/28 10:09:37;;;;;;;15.25;13.75;;;24.10;99.90;;;;;;4999928;28;20047;-80
2023/07/28 10:12:08;;;;;;;14.77;13.07;;;23.90;99.90;;;;;;5000153;28;20531;-80
2023/07/28 10:14:37;;;;;;;14.90;13.45;;;23.60;99.90;;;;;;4997799;28;20145;-80
2023/07/28 10:17:05;;;;;;;16.15;14.35;;;23.40;99.90;;;;;;4995990;28;20402;-78
2023/07/28 10:19:35;;;;;;;16.40;14.90;;;23.20;99.90;;;;;;5008882;28;20068;-79
2023/07/28 10:22:11;;;;;;;15.77;14.32;;;23.30;99.90;;;;;;5016548;28;20041;-80
2023/07/28 10:24:52;;;;;;;16.30;14.85;;;23.60;99.90;;;;;;5004488;28;20037;-78
2023/07/28 10:27:45;;;;;;;12.93;11.38;;;23.90;99.90;;;;;;5002640;28;20096;-79
2023/07/28 10:30:13;;;;;;;11.65;10.52;;;23.90;99.90;;;;;;5000012;28;20037;-78
2023/07/28 10:32:48;;;;;;;12.63;10.82;;;24.10;99.90;;;;;;5005646;28;20037;-78
2023/07/28 10:35:16;;;;;;;13.30;12.00;;;24.40;99.90;;;;;;4996209;28;20049;-78
2023/07/28 10:38:03;;;;;;;14.25;13.00;;;24.40;99.90;;;;;;5007426;28;20068;-79
2023/07/28 10:48:04;;;;;;;11.45;9.93;;;25.30;99.90;;;;;;5023859;28;20089;-79
2023/07/28 10:50:42;;;;;;;11.57;10.48;;;25.30;99.90;;;;;;5003893;28;20037;-79
2023/07/28 10:53:12;;;;;;;12.57;11.38;;;25.00;99.90;;;;;;5009206;28;20037;-79
2023/07/28 10:55:45;;;;;;;14.70;11.93;;;24.70;99.90;;;;;;4997672;28;20045;-79
2023/07/28 10:58:11;;;;;;;12.13;10.95;;;24.30;99.90;;;;;;5019675;28;20041;-80
2023/07/28 11:00:41;;;;;;;10.93;9.82;;;24.00;99.90;;;;;;4999362;28;20057;-79
2023/07/28 11:03:12;;;;;;;10.77;9.65;;;23.70;99.90;;;;;;5022508;28;20430;-78
2023/07/28 11:06:02;;;;;;;12.52;10.20;;;23.40;99.90;;;;;;5001430;28;20041;-81
2023/07/28 11:08:28;;;;;;;9.57;8.55;;;23.50;99.90;;;;;;5004364;28;20071;-78
2023/07/28 11:11:02;;;;;;;10.77;9.57;;;23.90;99.90;;;;;;4999207;28;20095;-79
2023/07/28 11:13:28;;;;;;;9.90;8.95;;;24.10;99.90;;;;;;4999249;28;20053;-79
2023/07/28 11:15:57;;;;;;;10.13;8.05;;;24.20;99.90;;;;;;5013784;28;20037;-78
2023/07/28 11:18:29;;;;;;;9.68;8.77;;;24.30;99.90;;;;;;5010556;28;20052;-79
2023/07/28 11:21:09;;;;;;;9.95;9.05;;;24.40;99.90;;;;;;5034386;28;20135;-79
2023/07/28 11:23:54;;;;;;;11.40;9.70;;;24.50;99.90;;;;;;4999339;28;20090;-79
2023/07/28 11:26:34;;;;;;;11.90;10.73;;;24.50;99.90;;;;;;5009555;28;20044;-78
2023/07/28 11:29:04;;;;;;;12.50;10.13;;;24.90;99.90;;;;;;5018860;28;20056;-79
2023/07/28 11:31:44;;;;;;;8.48;7.63;;;25.50;99.90;;;;;;5019396;28;20093;-79
2023/07/28 11:34:27;;;;;;;8.50;7.10;;;25.90;99.90;;;;;;5011624;28;20041;-79
2023/07/28 11:36:56;;;;;;;;;;;26.10;99.90;;;;;;5024629;28;20102;-79
2023/07/28 11:39:45;;;;;;;8.60;7.30;;;26.10;99.90;;;;;;5009855;28;19964;-79
2023/07/28 11:42:28;;;;;;;8.25;7.05;;;26.50;99.90;;;;;;5009894;28;20125;-79
2023/07/28 11:45:24;;;;;;;6.50;5.80;;;26.70;99.90;;;;;;5029312;28;20034;-79
2023/07/28 11:48:00;;;;;;;7.50;5.82;;;27.10;99.90;;;;;;5013437;28;20492;-79
2023/07/28 11:50:53;;;;;;;9.00;6.80;;;27.60;99.90;;;;;;5027139;28;20066;-79
2023/07/28 11:53:25;;;;;;;7.70;5.80;;;28.00;99.90;;;;;;5016073;28;20041;-79
2023/07/28 11:56:02;;;;;;;6.15;4.78;;;28.00;99.90;;;;;;5032952;28;20049;-79
2023/07/28 11:58:54;;;;;;;;;;;;;;;;;;;;;
2023/07/28 12:01:33;;;;;;;6.53;4.90;;;27.10;99.90;;;;;;5029359;28;20034;-78
2023/07/28 12:04:30;;;;;;;7.50;4.80;;;26.60;99.90;;;;;;4981813;28;20047;-79
2023/07/28 12:07:19;;;;;;;5.93;5.32;;;26.30;99.90;;;;;;5005582;28;20042;-79
2023/07/28 12:10:02;;;;;;;;;;;25.90;99.90;;;;;;5020025;28;20052;-79
2023/07/28 12:12:39;;;;;;;6.57;5.30;;;25.40;99.90;;;;;;5019725;28;19917;-79
2023/07/28 12:15:34;;;;;;;5.03;4.53;;;25.00;99.90;;;;;;5011503;28;20071;-79
2023/07/28 12:18:15;;;;;;;5.95;4.97;;;24.60;99.90;;;;;;5019034;28;20117;-78
2023/07/28 12:20:53;;;;;;;9.02;5.60;;;24.50;99.90;;;;;;5019482;28;20045;-79
2023/07/28 12:23:22;;;;;;;8.23;4.97;;;24.60;99.90;;;;;;5031908;28;20041;-79
2023/07/28 12:26:08;;;;;;;7.97;5.57;;;24.90;99.90;;;;;;5024797;28;20107;-79
2023/07/28 12:28:51;;;;;;;5.63;4.10;;;25.60;99.90;;;;;;4989154;28;20033;-79
2023/07/28 12:31:21;;;;;;;5.65;4.30;;;26.30;99.90;;;;;;5002713;28;20041;-80
2023/07/28 12:34:09;;;;;;;6.82;4.30;;;26.50;99.90;;;;;;4983898;28;20049;-79
2023/07/28 12:36:44;;;;;;;4.78;4.25;;;26.30;99.90;;;;;;4983046;28;20061;-79
2023/07/28 12:39:17;;;;;;;4.93;4.05;;;26.10;99.90;;;;;;5003113;28;20052;-78
2023/07/28 12:42:06;;;;;;;;;;;;;;;;;;;;;
2023/07/28 12:45:06;;;;;;;6.80;4.72;;;26.90;99.90;;;;;;5025726;28;20559;-79
2023/07/28 12:51:04;;;;;;;6.50;4.05;;;27.20;99.90;;;;;;4970161;28;20035;-80
2023/07/28 12:53:49;;;;;;;5.63;4.38;;;27.70;99.90;;;;;;4955729;28;20047;-78
2023/07/28 12:56:48;;;;;;;6.30;4.50;;;28.00;99.90;;;;;;4987068;23;20065;-78
2023/07/28 12:59:26;;;;;;;6.63;5.03;;;28.10;99.90;;;;;;5029937;28;20087;-78
2023/07/28 13:02:04;;;;;;;8.40;4.85;;;28.40;99.90;;;;;;4997836;28;20061;-78
2023/07/28 13:04:55;;;;;;;7.47;5.37;;;28.20;99.90;;;;;;4989526;28;20065;-77
2023/07/28 13:33:37;;;;;;;5.85;4.78;;;29.00;99.90;;;;;;5009198;28;20038;-88
2023/07/28 13:43:13;;;;;;;4.93;4.22;;;28.80;99.90;;;;;;4924951;28;20186;-87
2023/07/28 13:45:49;;;;;;;4.78;4.20;;;28.80;99.90;;;;;;5028250;23;20050;-77
2023/07/28 13:48:24;;;;;;;4.15;3.80;;;28.70;99.90;;;;;;4975530;28;20540;-77
2023/07/28 13:51:03;;;;;;;4.40;3.80;;;28.70;99.90;;;;;;4976778;28;20133;-77
2023/07/28 13:53:54;;;;;;;;;;;;;;;;;;;;;
2023/07/28 13:56:51;;;;;;;4.85;4.45;;;28.20;99.90;;;;;;5002056;28;20580;-78
2023/07/28 14:00:08;;;;;;;5.43;4.93;;;28.10;99.90;;;;;;4983310;28;20041;-78
2023/07/28 14:03:11;;;;;;;5.38;4.88;;;27.70;99.90;;;;;;4973129;28;20127;-78
2023/07/28 14:08:55;;;;;;;7.72;5.82;;;27.60;99.90;;;;;;5909526;23;20049;-78
2023/07/28 14:16:03;;;;;;;7.38;6.68;;;27.20;99.90;;;;;;4962712;28;20038;-78
2023/07/28 14:18:34;;;;;;;8.38;7.68;;;27.10;99.90;;;;;;4961535;28;20038;-78
2023/07/28 14:25:03;;;;;;;7.70;6.95;;;27.10;99.90;;;;;;4959725;28;20041;-79
2023/07/28 14:28:01;;;;;;;8.23;7.47;;;26.80;99.90;;;;;;4953039;28;20039;-79